Time;durP1;ratioP1;P1;durP2;ratioP2;P2;SDS_P1;SDS_P2;PMS_P1;PMS_P2;Temp;Humidity;BMP_temperature;BMP_pressure;BME280_temperature;BME280_humidity;BME280_pressure;Samples;Min_cycle;Max_cycle;Signal;HPM_P1;HPM_P2
2021/05/20 00:01:21;;;;;;;11.70;8.50;;;;;;;7.33;80.67;100187.79;102451;1117;81144;-60
2021/05/20 00:03:27;;;;;;;11.30;9.10;;;;;;;7.35;80.83;100188.45;102416;1117;80007;-60
2021/05/20 00:05:34;;;;;;;11.70;8.20;;;;;;;7.33;80.84;100190.47;102427;1117;80902;-60
2021/05/20 00:07:41;;;;;;;10.20;8.30;;;;;;;7.31;81.11;100194.31;102448;1119;80570;-60
2021/05/20 00:09:47;;;;;;;8.30;7.40;;;;;;;7.22;80.83;100190.84;102446;1118;80075;-60
2021/05/20 00:11:53;;;;;;;10.20;7.80;;;;;;;7.22;81.09;100198.91;102431;1118;81000;-60
2021/05/20 00:13:59;;;;;;;12.10;7.70;;;;;;;7.20;80.67;100200.91;102466;1117;81199;-60
2021/05/20 00:16:05;;;;;;;9.30;7.60;;;;;;;7.18;80.94;100197.56;102429;1118;80963;-60
2021/05/20 00:18:11;;;;;;;9.10;8.10;;;;;;;7.19;80.84;100193.88;102430;1117;80149;-60
2021/05/20 00:20:18;;;;;;;10.70;7.50;;;;;;;7.19;80.82;100199.25;102448;1118;80112;-60
2021/05/20 00:22:24;;;;;;;9.20;7.30;;;;;;;7.18;80.92;100188.66;102479;1118;80148;-60
2021/05/20 00:24:29;;;;;;;8.70;7.70;;;;;;;7.16;80.77;100188.84;102425;1117;80309;-60
2021/05/20 00:26:35;;;;;;;9.40;8.00;;;;;;;7.09;80.97;100190.53;102425;1118;80187;-61
2021/05/20 00:28:44;;;;;;;9.10;7.80;;;;;;;7.09;81.02;100195.90;102443;1118;81121;-61
2021/05/20 00:30:50;;;;;;;8.30;6.90;;;;;;;7.07;80.82;100196.09;102452;1117;80448;-60
2021/05/20 00:32:55;;;;;;;12.00;7.50;;;;;;;7.05;80.89;100187.38;102444;1119;79699;-60
2021/05/20 00:35:05;;;;;;;9.80;7.10;;;;;;;7.05;81.09;100195.43;102465;1118;81333;-60
2021/05/20 00:37:11;;;;;;;10.00;7.90;;;;;;;7.06;80.76;100198.92;102467;1117;80364;-60
2021/05/20 00:39:16;;;;;;;8.80;7.20;;;;;;;7.03;81.27;100191.23;102419;1117;79773;-61
2021/05/20 00:41:23;;;;;;;10.80;7.70;;;;;;;7.02;81.03;100194.92;102433;1119;81044;-61
2021/05/20 00:43:30;;;;;;;9.80;8.70;;;;;;;6.98;80.77;100194.42;102440;1117;80586;-61
2021/05/20 00:45:35;;;;;;;10.90;8.20;;;;;;;6.96;80.83;100192.92;102355;1120;80121;-60
2021/05/20 00:47:41;;;;;;;8.90;7.80;;;;;;;6.93;80.90;100199.47;102435;1117;80912;-60
2021/05/20 00:49:47;;;;;;;8.10;7.30;;;;;;;6.87;80.81;100205.52;102461;1118;80997;-61
2021/05/20 00:51:53;;;;;;;9.60;7.70;;;;;;;6.84;80.92;100202.36;102453;1112;79372;-60
2021/05/20 00:53:59;;;;;;;10.40;7.90;;;;;;;6.82;80.87;100202.51;102487;1118;79857;-60
2021/05/20 00:56:07;;;;;;;8.80;7.80;;;;;;;6.80;81.15;100198.32;102444;1117;80968;-61
2021/05/20 00:58:14;;;;;;;10.70;7.90;;;;;;;6.74;80.92;100196.31;102449;1119;80805;-61
2021/05/20 01:00:24;;;;;;;13.40;8.60;;;;;;;6.76;81.16;100191.59;102456;1118;80854;-60
2021/05/20 01:02:30;;;;;;;11.50;7.90;;;;;;;6.73;81.10;100190.09;102433;1117;79365;-60
2021/05/20 01:04:36;;;;;;;12.50;9.00;;;;;;;6.69;81.13;100190.61;102438;1119;80111;-61
2021/05/20 01:06:42;;;;;;;9.30;7.80;;;;;;;6.69;81.16;100194.14;102437;1117;80183;-61
2021/05/20 01:08:47;;;;;;;9.10;8.10;;;;;;;6.67;81.21;100190.80;102435;1118;81205;-60
2021/05/20 01:10:54;;;;;;;10.70;8.20;;;;;;;6.68;81.41;100192.45;102323;1120;81318;-59
2021/05/20 01:12:59;;;;;;;12.00;8.20;;;;;;;6.69;81.16;100193.30;102423;1117;79526;-59
2021/05/20 01:15:19;;;;;;;10.20;8.40;;;;;;;6.72;81.25;100193.81;102406;1117;79163;-60
2021/05/20 01:17:25;;;;;;;11.00;9.00;;;;;;;6.72;81.39;100196.48;102424;1118;80004;-60
2021/05/20 01:19:31;;;;;;;10.40;8.90;;;;;;;6.74;81.37;100197.15;102458;1118;79871;-60
2021/05/20 01:21:37;;;;;;;10.50;8.80;;;;;;;6.70;81.34;100192.30;102429;1117;80514;-60
2021/05/20 01:23:46;;;;;;;12.50;8.70;;;;;;;6.74;81.61;100198.99;102435;1117;79239;-60
2021/05/20 01:25:52;;;;;;;10.60;8.80;;;;;;;6.72;81.56;100198.33;102433;1117;79933;-60
2021/05/20 01:28:03;;;;;;;11.70;9.30;;;;;;;6.75;81.41;100193.47;102451;1118;80000;-59
2021/05/20 01:30:12;;;;;;;10.80;9.10;;;;;;;6.74;81.58;100196.31;102442;1118;81780;-59
2021/05/20 01:32:17;;;;;;;11.10;8.80;;;;;;;6.72;81.77;100191.13;102465;1117;79535;-60
2021/05/20 01:34:23;;;;;;;11.40;8.70;;;;;;;6.72;81.66;100190.28;102410;1118;81504;-61
2021/05/20 01:36:30;;;;;;;10.20;8.80;;;;;;;6.72;81.44;100196.48;102445;1117;79567;-61
2021/05/20 01:38:42;;;;;;;13.50;9.60;;;;;;;6.73;81.73;100202.70;102455;1117;80062;-61
2021/05/20 01:40:52;;;;;;;11.60;8.30;;;;;;;6.68;81.50;100197.83;102455;1117;80754;-60
2021/05/20 01:42:57;;;;;;;12.30;8.80;;;;;;;6.62;81.57;100206.55;102456;1117;80360;-60
2021/05/20 01:45:04;;;;;;;11.50;8.90;;;;;;;6.59;81.39;100206.91;102415;1117;80632;-62
2021/05/20 01:47:10;;;;;;;9.90;8.20;;;;;;;6.59;81.47;100208.75;102435;1117;79022;-59
2021/05/20 01:49:16;;;;;;;13.30;9.00;;;;;;;6.58;81.62;100207.06;102420;1118;81573;-59
2021/05/20 01:51:23;;;;;;;12.30;9.20;;;;;;;6.56;81.71;100207.24;102414;1117;79033;-60
2021/05/20 01:53:29;;;;;;;11.00;8.80;;;;;;;6.53;81.28;100212.94;102438;1117;79406;-59
2021/05/20 01:55:34;;;;;;;12.00;8.50;;;;;;;6.50;81.42;100216.80;102429;1117;81763;-60
2021/05/20 01:57:40;;;;;;;12.90;9.90;;;;;;;6.50;81.72;100208.75;102428;1117;82375;-61
2021/05/20 01:59:46;;;;;;;11.30;9.20;;;;;;;6.47;81.41;100210.92;102455;1117;79968;-61
2021/05/20 02:01:52;;;;;;;11.50;9.20;;;;;;;6.47;81.54;100214.45;102456;1119;79968;-59
2021/05/20 02:03:57;;;;;;;12.50;10.80;;;;;;;6.46;81.62;100211.92;102479;1117;80614;-60
2021/05/20 02:06:04;;;;;;;11.60;9.50;;;;;;;6.45;81.68;100218.31;102425;1113;79468;-60
2021/05/20 02:08:10;;;;;;;12.00;9.20;;;;;;;6.41;81.51;100217.80;102442;1117;79769;-61
2021/05/20 02:10:16;;;;;;;12.90;9.50;;;;;;;6.41;81.87;100219.63;102413;1119;81048;-60
2021/05/20 02:12:22;;;;;;;10.20;9.20;;;;;;;6.43;81.75;100217.61;102459;1118;79441;-60
2021/05/20 02:14:27;;;;;;;10.60;9.20;;;;;;;6.43;81.86;100214.94;102352;1120;80878;-60
2021/05/20 02:16:33;;;;;;;15.60;10.90;;;;;;;6.39;81.58;100213.61;102479;1118;80318;-61
2021/05/20 02:18:40;;;;;;;12.20;9.90;;;;;;;6.37;81.45;100213.76;102479;1117;80081;-60
2021/05/20 02:20:45;;;;;;;15.90;9.50;;;;;;;6.35;81.51;100214.93;102513;1118;80180;-61
2021/05/20 02:22:52;;;;;;;11.60;9.20;;;;;;;6.33;81.53;100215.11;102472;1119;80968;-61
2021/05/20 02:25:01;;;;;;;12.60;9.50;;;;;;;6.31;81.57;100214.45;102464;1117;80718;-61
2021/05/20 02:27:08;;;;;;;12.20;9.10;;;;;;;6.31;81.57;100217.13;102410;1118;80271;-61
2021/05/20 02:29:13;;;;;;;13.50;10.50;;;;;;;6.31;81.79;100217.13;102484;1118;79269;-61
2021/05/20 02:31:19;;;;;;;11.60;9.70;;;;;;;6.27;81.59;100215.77;102439;1119;80959;-62
2021/05/20 02:33:25;;;;;;;12.70;9.60;;;;;;;6.24;81.72;100216.09;102452;1118;79714;-61
2021/05/20 02:35:31;;;;;;;12.10;10.20;;;;;;;6.21;81.61;100215.58;102446;1118;81123;-61
2021/05/20 02:37:37;;;;;;;10.90;9.30;;;;;;;6.17;81.54;100212.42;102427;1117;79435;-61
2021/05/20 02:39:43;;;;;;;12.10;9.20;;;;;;;6.16;81.66;100217.93;102474;1117;80247;-61
2021/05/20 02:41:50;;;;;;;12.10;10.10;;;;;;;6.14;81.72;100228.83;102394;1117;80285;-61
2021/05/20 02:43:56;;;;;;;14.60;9.70;;;;;;;6.12;81.93;100224.64;102446;1117;80879;-61
2021/05/20 02:46:03;;;;;;;11.60;8.80;;;;;;;6.07;82.06;100227.80;102455;1118;80564;-61
2021/05/20 02:48:09;;;;;;;12.00;9.20;;;;;;;6.07;81.72;100233.16;102460;1117;79267;-61
2021/05/20 02:50:16;;;;;;;11.20;9.60;;;;;;;6.05;81.76;100229.81;102460;1118;79648;-60
2021/05/20 02:52:22;;;;;;;12.80;10.50;;;;;;;6.05;81.60;100232.50;102445;1117;79190;-62
2021/05/20 02:54:28;;;;;;;11.30;9.20;;;;;;;6.02;82.01;100235.50;102443;1117;81008;-60
2021/05/20 02:56:33;;;;;;;11.50;9.30;;;;;;;6.03;81.96;100226.47;102447;1117;80704;-61
2021/05/20 02:58:39;;;;;;;10.90;9.50;;;;;;;6.02;81.89;100230.14;102444;1117;79914;-60
2021/05/20 03:00:47;;;;;;;11.30;9.00;;;;;;;6.05;81.95;100231.65;102421;1118;81785;-61
2021/05/20 03:02:53;;;;;;;13.60;10.40;;;;;;;6.07;82.05;100238.52;102430;1118;80295;-61
2021/05/20 03:04:58;;;;;;;13.60;10.10;;;;;;;6.06;82.02;100236.86;102437;1117;81515;-60
2021/05/20 03:07:07;;;;;;;12.70;10.00;;;;;;;6.10;81.90;100238.20;102424;1117;81196;-60
2021/05/20 03:09:13;;;;;;;13.00;9.40;;;;;;;6.14;82.04;100234.20;102478;1118;81557;-60
2021/05/20 03:11:19;;;;;;;14.40;9.70;;;;;;;6.16;82.07;100240.23;102442;1118;82996;-60
2021/05/20 03:13:27;;;;;;;11.00;8.90;;;;;;;6.17;82.33;100239.23;102401;1119;79421;-60
2021/05/20 03:15:33;;;;;;;12.50;9.60;;;;;;;6.22;82.09;100242.25;102428;1117;79011;-60
2021/05/20 03:17:39;;;;;;;10.30;8.70;;;;;;;6.26;82.37;100243.59;102439;1119;81357;-60
2021/05/20 03:19:44;;;;;;;11.80;9.70;;;;;;;6.32;82.37;100232.20;102432;1118;80943;-61
2021/05/20 03:21:50;;;;;;;12.30;9.90;;;;;;;6.35;82.21;100237.23;102446;1117;80916;-61
2021/05/20 03:23:57;;;;;;;12.50;9.70;;;;;;;6.46;82.12;100236.06;102405;1117;80458;-61
2021/05/20 03:26:03;;;;;;;11.60;9.90;;;;;;;6.57;82.27;100238.42;102401;1118;80945;-61
2021/05/20 03:28:09;;;;;;;13.80;9.90;;;;;;;6.63;82.22;100245.81;102440;1118;80372;-61
2021/05/20 03:30:17;;;;;;;11.40;9.30;;;;;;;6.72;82.34;100249.34;102420;1117;79829;-59
2021/05/20 03:32:22;;;;;;;13.50;10.50;;;;;;;6.79;82.54;100244.95;102432;1117;80409;-60
2021/05/20 03:34:28;;;;;;;16.60;9.90;;;;;;;6.98;82.65;100239.23;102456;1117;80259;-60
2021/05/20 03:36:34;;;;;;;11.30;9.70;;;;;;;7.63;83.74;100243.44;102446;1119;80191;-61
2021/05/20 03:38:40;;;;;;;11.30;9.40;;;;;;;9.05;83.42;100233.89;102441;1118;80311;-61
2021/05/20 03:40:45;;;;;;;13.00;10.30;;;;;;;10.20;82.28;100226.94;102425;1117;80611;-60
2021/05/20 03:42:53;;;;;;;11.50;8.70;;;;;;;11.49;81.45;100230.11;102466;1118;79697;-60
2021/05/20 03:44:59;;;;;;;9.90;8.50;;;;;;;12.70;80.67;100239.11;102447;1117;79196;-62
2021/05/20 03:47:04;;;;;;;9.50;8.20;;;;;;;13.74;79.48;100225.66;102470;1117;79842;-61
2021/05/20 03:49:10;;;;;;;10.40;8.70;;;;;;;14.59;78.40;100226.11;102397;1117;80055;-60
2021/05/20 03:51:16;;;;;;;9.10;7.80;;;;;;;15.45;77.26;100212.60;102437;1118;80915;-60
2021/05/20 03:53:21;;;;;;;8.80;7.80;;;;;;;16.38;75.66;100222.16;102458;1118;79838;-60
2021/05/20 03:55:27;;;;;;;8.60;7.70;;;;;;;16.80;73.77;100223.05;102442;1117;80483;-61
2021/05/20 03:57:33;;;;;;;8.10;7.30;;;;;;;17.37;72.62;100220.59;102454;1117;79568;-61
2021/05/20 03:59:39;;;;;;;7.30;6.60;;;;;;;17.85;70.79;100229.38;102452;1117;80810;-60
2021/05/20 04:01:45;;;;;;;7.70;6.90;;;;;;;18.14;69.71;100230.24;102447;1117;81114;-60
2021/05/20 04:03:50;;;;;;;9.90;7.90;;;;;;;18.77;67.96;100232.84;102451;1117;80678;-61
2021/05/20 04:05:59;;;;;;;7.20;6.50;;;;;;;18.91;67.03;100225.98;102443;1119;79477;-62
2021/05/20 04:08:06;;;;;;;7.20;6.50;;;;;;;19.07;65.11;100232.53;102464;1118;80326;-61
2021/05/20 04:10:14;;;;;;;9.00;6.70;;;;;;;18.61;64.51;100230.91;102464;1117;80581;-60
2021/05/20 04:12:23;;;;;;;10.60;6.70;;;;;;;18.26;64.42;100225.58;102473;1117;79685;-61
2021/05/20 04:14:29;;;;;;;7.20;5.80;;;;;;;18.50;63.55;100232.64;102394;1113;79199;-61
2021/05/20 04:16:34;;;;;;;7.30;6.60;;;;;;;18.62;62.91;100229.85;102430;1117;80765;-61
2021/05/20 04:18:41;;;;;;;8.00;6.50;;;;;;;18.69;61.90;100230.52;102461;1119;80707;-61
2021/05/20 04:20:47;;;;;;;7.60;5.70;;;;;;;18.38;61.67;100233.70;102461;1118;80988;-61
2021/05/20 04:22:53;;;;;;;6.70;6.00;;;;;;;18.95;61.36;100229.06;102451;1117;80113;-61
2021/05/20 04:24:58;;;;;;;6.70;5.90;;;;;;;19.03;60.70;100232.22;102412;1117;80857;-60
2021/05/20 04:27:05;;;;;;;7.80;5.70;;;;;;;18.34;60.47;100232.55;102436;1118;80487;-60
2021/05/20 04:29:14;;;;;;;6.50;5.50;;;;;;;17.51;60.76;100232.94;102436;1119;81586;-61
2021/05/20 04:31:20;;;;;;;7.30;5.70;;;;;;;17.80;61.36;100236.64;102424;1117;80921;-61
2021/05/20 04:33:26;;;;;;;7.00;5.60;;;;;;;18.47;61.24;100243.20;102450;1117;79158;-61
2021/05/20 04:35:31;;;;;;;9.10;5.70;;;;;;;19.33;60.58;100232.71;102470;1117;80856;-60
2021/05/20 04:37:37;;;;;;;6.20;5.30;;;;;;;20.33;59.17;100243.44;102449;1117;80280;-60
2021/05/20 04:39:43;;;;;;;7.50;5.70;;;;;;;20.67;58.92;100246.00;102476;1117;81244;-61
2021/05/20 04:41:48;;;;;;;7.80;6.00;;;;;;;20.02;57.05;100244.94;102460;1117;81224;-61
2021/05/20 04:43:54;;;;;;;8.90;6.30;;;;;;;18.63;57.69;100248.74;102417;1117;79140;-61
2021/05/20 04:46:00;;;;;;;7.50;6.10;;;;;;;17.47;57.96;100250.89;102480;1117;81483;-62
2021/05/20 04:48:08;;;;;;;8.00;5.90;;;;;;;16.34;58.79;100256.39;102475;1119;79471;-62
2021/05/20 04:50:18;;;;;;;11.80;6.30;;;;;;;15.44;59.76;100253.67;102451;1119;80234;-60
2021/05/20 04:52:24;;;;;;;7.70;6.80;;;;;;;14.73;60.82;100262.19;102468;1117;79719;-60
2021/05/20 04:54:29;;;;;;;9.10;6.10;;;;;;;14.26;61.60;100268.08;102418;1118;78732;-62
2021/05/20 04:56:35;;;;;;;6.70;5.80;;;;;;;14.40;63.37;100270.55;102434;1119;80230;-62
2021/05/20 04:58:43;;;;;;;7.00;6.40;;;;;;;15.50;64.15;100260.95;102437;1117;81165;-62
2021/05/20 05:00:49;;;;;;;6.80;5.70;;;;;;;17.22;62.36;100263.94;102433;1119;81301;-60
2021/05/20 05:02:55;;;;;;;6.10;5.10;;;;;;;18.43;60.78;100261.19;102434;1118;78901;-60
2021/05/20 05:05:01;;;;;;;6.10;5.60;;;;;;;18.76;60.43;100259.38;102447;1117;80254;-62
2021/05/20 05:07:06;;;;;;;5.50;4.80;;;;;;;20.14;59.20;100253.05;102430;1117;79973;-62
2021/05/20 05:09:12;;;;;;;6.80;5.00;;;;;;;21.21;57.41;100249.54;102429;1119;81044;-62
2021/05/20 05:11:18;;;;;;;7.10;5.40;;;;;;;21.38;55.45;100259.31;102464;1117;81044;-62
2021/05/20 05:13:23;;;;;;;5.00;4.30;;;;;;;21.81;55.38;100247.21;102443;1117;79392;-62
2021/05/20 05:15:29;;;;;;;5.30;4.70;;;;;;;22.48;53.55;100249.19;102428;1118;80440;-62
2021/05/20 05:17:35;;;;;;;5.90;4.50;;;;;;;23.43;52.02;100254.05;102466;1117;79431;-62
2021/05/20 05:19:41;;;;;;;6.80;4.80;;;;;;;22.91;50.93;100257.02;102459;1117;81075;-62
2021/05/20 05:21:46;;;;;;;5.50;4.60;;;;;;;23.52;50.58;100255.13;102437;1118;81810;-62
2021/05/20 05:23:53;;;;;;;5.80;4.40;;;;;;;24.35;49.00;100258.22;102423;1118;80137;-61
2021/05/20 05:26:02;;;;;;;4.50;4.10;;;;;;;23.90;48.89;100265.53;102465;1117;79581;-60
2021/05/20 05:28:08;;;;;;;4.40;4.00;;;;;;;23.17;48.87;100268.89;102441;1117;79767;-60
2021/05/20 05:30:17;;;;;;;5.20;4.10;;;;;;;23.54;48.56;100263.94;102446;1117;80699;-60
2021/05/20 05:32:23;;;;;;;4.80;4.00;;;;;;;24.85;47.64;100263.51;102456;1117;80478;-60
2021/05/20 05:34:29;;;;;;;5.60;3.80;;;;;;;25.08;45.49;100260.00;102450;1117;81350;-62
2021/05/20 05:36:35;;;;;;;4.10;3.20;;;;;;;25.55;43.41;100264.06;102456;1117;79938;-62
2021/05/20 05:38:44;;;;;;;3.70;3.10;;;;;;;25.94;42.42;100267.53;102449;1118;80971;-61
2021/05/20 05:40:50;;;;;;;5.80;3.50;;;;;;;26.36;43.28;100258.48;102340;1120;80711;-61
2021/05/20 05:42:55;;;;;;;5.50;3.10;;;;;;;27.12;41.65;100262.95;102329;1120;79302;-61
2021/05/20 05:45:02;;;;;;;3.30;3.00;;;;;;;27.55;41.18;100264.48;102448;1117;80229;-59
2021/05/20 05:47:08;;;;;;;3.90;3.30;;;;;;;28.02;41.64;100260.52;102467;1117;80276;-59
2021/05/20 05:49:15;;;;;;;4.40;3.10;;;;;;;28.37;39.96;100253.45;102462;1118;80475;-59
2021/05/20 05:51:23;;;;;;;5.40;3.50;;;;;;;28.59;39.32;100256.30;102449;1118;80272;-59
2021/05/20 05:53:30;;;;;;;3.70;2.90;;;;;;;28.61;37.16;100257.64;102449;1117;80590;-60
2021/05/20 05:55:35;;;;;;;2.80;2.40;;;;;;;28.66;36.38;100251.98;102456;1118;80285;-60
2021/05/20 05:57:44;;;;;;;2.50;2.30;;;;;;;28.66;36.56;100259.50;102450;1118;80868;-60
2021/05/20 05:59:51;;;;;;;2.80;2.50;;;;;;;28.84;35.47;100254.94;102477;1117;80853;-61
2021/05/20 06:01:59;;;;;;;4.20;2.50;;;;;;;29.25;35.18;100261.99;102429;1117;80552;-62
2021/05/20 06:04:06;;;;;;;3.60;2.60;;;;;;;29.46;34.57;100262.32;102464;1118;81076;-60
2021/05/20 06:06:13;;;;;;;3.50;2.30;;;;;;;29.30;34.56;100263.84;102448;1117;80665;-60
2021/05/20 06:08:20;;;;;;;2.30;2.20;;;;;;;29.36;34.78;100256.20;102462;1117;80728;-60
2021/05/20 06:10:26;;;;;;;3.60;2.60;;;;;;;29.55;34.36;100257.64;102429;1118;81442;-63
2021/05/20 06:12:31;;;;;;;3.10;2.40;;;;;;;29.99;32.78;100264.27;102439;1118;80590;-63
2021/05/20 06:14:40;;;;;;;3.60;2.10;;;;;;;30.20;32.49;100257.80;102429;1117;80969;-63
2021/05/20 06:16:45;;;;;;;3.50;2.00;;;;;;;30.10;32.93;100268.42;102424;1119;80970;-63
2021/05/20 06:18:55;;;;;;;3.10;1.90;;;;;;;30.21;32.44;100266.98;102448;1112;79698;-61
2021/05/20 06:21:00;;;;;;;3.70;2.40;;;;;;;30.22;32.58;100263.86;102448;1118;80374;-60
2021/05/20 06:23:07;;;;;;;4.40;2.20;;;;;;;30.26;32.20;100264.88;102433;1117;80811;-61
2021/05/20 06:25:15;;;;;;;3.10;2.00;;;;;;;30.52;31.67;100266.95;102442;1117;79725;-63
2021/05/20 06:27:22;;;;;;;3.30;1.90;;;;;;;30.67;31.29;100264.50;102442;1119;80661;-64
2021/05/20 06:29:28;;;;;;;2.40;2.10;;;;;;;30.58;31.11;100262.83;102437;1118;81126;-58
2021/05/20 06:31:34;;;;;;;3.50;2.00;;;;;;;30.89;29.93;100264.37;102443;1118;80610;-59
2021/05/20 06:33:42;;;;;;;3.20;2.10;;;;;;;31.08;30.16;100269.65;102436;1117;80437;-59
2021/05/20 06:35:48;;;;;;;2.80;1.80;;;;;;;31.02;29.88;100273.75;102453;1118;80304;-61
2021/05/20 06:37:54;;;;;;;2.10;1.40;;;;;;;30.83;27.16;100264.84;102421;1117;81272;-60
2021/05/20 06:40:00;;;;;;;3.50;1.40;;;;;;;30.76;28.88;100268.14;102424;1117;81918;-62
2021/05/20 06:42:08;;;;;;;5.40;1.60;;;;;;;31.07;29.08;100272.78;102410;1118;81355;-63
2021/05/20 06:44:14;;;;;;;2.30;1.70;;;;;;;30.78;28.10;100271.41;102460;1118;80917;-63
2021/05/20 06:46:20;;;;;;;2.70;1.90;;;;;;;30.45;28.05;100278.56;102439;1118;80205;-66
2021/05/20 06:48:26;;;;;;;2.70;1.80;;;;;;;30.87;27.71;100274.22;102444;1113;79386;-66
2021/05/20 06:50:32;;;;;;;2.90;1.60;;;;;;;30.85;28.37;100271.73;102444;1118;81161;-61
2021/05/20 06:52:42;;;;;;;3.40;1.50;;;;;;;30.40;27.92;100278.72;102455;1118;79447;-62
2021/05/20 06:54:48;;;;;;;2.80;1.60;;;;;;;30.23;28.27;100275.84;102466;1117;80721;-66
2021/05/20 06:57:00;;;;;;;3.70;1.70;;;;;;;30.38;27.65;100279.03;102461;1118;81852;-67
2021/05/20 07:01:34;;;;;;;2.30;1.50;;;;;;;30.31;26.81;100278.66;102353;1120;80500;-65
2021/05/20 07:03:40;;;;;;;2.20;1.70;;;;;;;30.17;27.52;100271.55;102434;1117;81172;-65
2021/05/20 07:05:52;;;;;;;2.40;1.70;;;;;;;30.62;27.11;100267.45;102441;1117;79914;-60
2021/05/20 07:07:58;;;;;;;2.30;1.40;;;;;;;30.61;26.50;100267.77;102455;1119;79623;-60
2021/05/20 07:10:06;;;;;;;1.60;1.00;;;;;;;30.41;26.78;100282.34;102471;1118;79224;-60
2021/05/20 07:12:13;;;;;;;2.50;1.20;;;;;;;30.27;26.59;100277.65;102474;1119;79322;-60
2021/05/20 07:14:19;;;;;;;1.70;1.10;;;;;;;29.61;26.28;100280.59;102470;1119;80908;-59
2021/05/20 07:16:25;;;;;;;2.30;1.50;;;;;;;29.71;26.85;100283.11;102450;1117;81292;-58
2021/05/20 07:18:31;;;;;;;1.80;1.40;;;;;;;29.70;26.91;100278.67;102452;1118;79947;-60
2021/05/20 07:20:36;;;;;;;2.10;1.30;;;;;;;29.73;27.04;100280.81;102284;1121;81042;-59
2021/05/20 07:22:42;;;;;;;1.90;1.20;;;;;;;30.09;28.13;100275.13;102430;1117;80718;-58
2021/05/20 07:24:48;;;;;;;3.00;1.50;;;;;;;30.56;28.21;100263.17;102465;1117;80481;-58
2021/05/20 07:26:57;;;;;;;1.60;1.20;;;;;;;30.37;26.33;100271.00;102452;1117;81391;-58
2021/05/20 07:29:04;;;;;;;1.80;1.40;;;;;;;29.89;25.31;100264.57;102454;1117;80168;-59
2021/05/20 07:31:10;;;;;;;2.10;1.20;;;;;;;29.77;27.02;100274.31;102468;1117;80980;-63
2021/05/20 07:33:16;;;;;;;1.70;1.20;;;;;;;29.49;26.14;100278.39;102448;1117;80730;-64
2021/05/20 07:35:22;;;;;;;2.20;1.30;;;;;;;29.63;26.88;100270.78;102449;1118;81454;-61
2021/05/20 07:37:30;;;;;;;1.90;1.30;;;;;;;30.21;26.31;100278.96;102440;1118;81625;-60
2021/05/20 07:39:36;;;;;;;1.70;1.50;;;;;;;30.44;26.45;100285.28;102447;1117;79016;-63
2021/05/20 07:41:44;;;;;;;2.80;1.50;;;;;;;30.17;25.83;100275.16;102448;1117;80470;-63
2021/05/20 07:43:50;;;;;;;2.40;1.60;;;;;;;30.37;26.81;100279.37;102457;1118;81512;-60
2021/05/20 07:45:56;;;;;;;1.60;1.20;;;;;;;29.96;26.15;100284.42;102453;1118;80116;-61
2021/05/20 07:48:02;;;;;;;2.60;1.60;;;;;;;29.60;25.74;100285.34;102480;1118;81317;-60
2021/05/20 07:50:14;;;;;;;2.10;1.40;;;;;;;29.54;26.41;100275.47;102464;1118;80616;-60
2021/05/20 07:52:23;;;;;;;1.60;1.20;;;;;;;29.64;25.85;100280.77;102455;1117;80416;-61
2021/05/20 07:54:32;;;;;;;2.30;1.40;;;;;;;29.97;26.65;100269.36;102444;1117;79310;-61
2021/05/20 07:56:43;;;;;;;1.50;1.20;;;;;;;30.39;25.20;100277.89;102464;1118;80147;-63
2021/05/20 07:58:53;;;;;;;2.10;1.50;;;;;;;30.52;25.44;100290.05;102470;1118;80251;-63
2021/05/20 08:01:01;;;;;;;2.70;1.40;;;;;;;30.08;25.35;100281.86;102429;1117;80884;-63
2021/05/20 08:03:17;;;;;;;3.30;1.40;;;;;;;30.00;25.38;100274.26;102475;1118;80355;-64
2021/05/20 08:05:31;;;;;;;1.20;1.10;;;;;;;29.94;26.01;100278.35;102448;1117;81085;-64
2021/05/20 08:07:46;;;;;;;3.80;1.30;;;;;;;30.22;26.37;100275.02;102463;1117;79893;-65
2021/05/20 08:10:05;;;;;;;3.20;1.20;;;;;;;30.62;24.97;100272.20;102469;1118;81749;-64
2021/05/20 08:12:11;;;;;;;3.50;1.10;;;;;;;30.18;25.15;100275.99;102276;1120;81645;-65
2021/05/20 08:14:20;;;;;;;3.80;1.60;;;;;;;29.64;24.68;100275.19;102470;1117;81784;-61
2021/05/20 08:16:29;;;;;;;2.10;1.60;;;;;;;28.66;26.07;100268.67;102582;1089;79705;-64
2021/05/20 08:18:34;;;;;;;2.30;1.50;;;;;;;28.68;26.19;100256.42;102449;1118;81645;-62
2021/05/20 08:20:40;;;;;;;1.60;1.20;;;;;;;29.00;26.12;100265.39;102309;1120;79398;-61
2021/05/20 08:22:49;;;;;;;1.80;1.20;;;;;;;28.85;26.60;100262.13;102290;1120;80266;-61
2021/05/20 08:24:59;;;;;;;2.20;1.10;;;;;;;29.25;26.34;100269.55;102315;1120;81286;-61
2021/05/20 08:27:06;;;;;;;1.40;1.10;;;;;;;28.75;26.65;100265.15;102307;1120;79831;-59
2021/05/20 08:29:14;;;;;;;2.90;1.50;;;;;;;27.90;26.21;100274.10;102322;1120;79439;-60
2021/05/20 08:31:20;;;;;;;1.10;1.00;;;;;;;27.52;27.18;100271.44;102329;1120;81185;-63
2021/05/20 08:33:26;;;;;;;2.00;1.50;;;;;;;27.79;27.52;100267.92;102312;1120;80336;-63
2021/05/20 08:35:32;;;;;;;2.70;1.30;;;;;;;28.98;27.70;100262.08;102303;1120;79002;-63
2021/05/20 08:37:39;;;;;;;2.10;1.30;;;;;;;29.29;27.40;100264.15;102325;1120;79910;-65
2021/05/20 08:39:47;;;;;;;3.70;1.70;;;;;;;29.30;26.98;100266.63;102298;1120;79570;-62
2021/05/20 08:41:58;;;;;;;1.40;1.10;;;;;;;28.01;26.77;100268.05;102307;1120;81590;-58
2021/05/20 08:44:14;;;;;;;2.00;1.30;;;;;;;27.42;27.58;100268.85;102305;1120;81160;-60
2021/05/20 08:46:26;;;;;;;2.10;1.30;;;;;;;27.27;28.46;100268.27;102313;1120;80851;-60
2021/05/20 08:48:35;;;;;;;2.30;1.10;;;;;;;26.27;28.42;100268.56;102323;1120;78729;-59
2021/05/20 08:50:41;;;;;;;2.60;1.30;;;;;;;26.02;28.91;100272.42;102320;1120;79337;-61
2021/05/20 08:52:50;;;;;;;2.60;1.10;;;;;;;25.96;29.66;100270.03;102327;1120;81723;-62
2021/05/20 08:54:59;;;;;;;2.60;1.20;;;;;;;26.11;28.97;100254.05;102304;1120;80528;-62
2021/05/20 08:57:07;;;;;;;1.60;1.30;;;;;;;26.27;29.08;100265.80;102288;1120;80039;-62
2021/05/20 08:59:14;;;;;;;1.90;1.20;;;;;;;26.87;29.66;100261.39;102321;1120;79862;-62
2021/05/20 09:04:01;;;;;;;2.10;1.30;;;;;;;26.61;28.94;100268.41;102395;1121;77744;-59
2021/05/20 09:06:08;;;;;;;3.40;1.40;;;;;;;26.15;29.92;100266.20;102222;1120;80172;-61
2021/05/20 09:08:18;;;;;;;2.00;1.40;;;;;;;25.53;29.70;100269.06;102251;1120;80600;-58
2021/05/20 09:10:27;;;;;;;1.80;1.10;;;;;;;25.16;29.71;100269.65;102238;1121;81024;-61
2021/05/20 09:12:34;;;;;;;2.10;1.10;;;;;;;24.88;30.98;100265.70;102246;1121;80674;-61
2021/05/20 09:14:43;;;;;;;2.20;1.20;;;;;;;24.56;30.57;100263.36;102238;1121;80934;-66
2021/05/20 09:16:48;;;;;;;2.90;1.10;;;;;;;24.08;31.27;100270.46;102206;1121;80959;-67
2021/05/20 09:18:54;;;;;;;1.30;1.10;;;;;;;23.69;29.79;100261.17;102215;1116;81123;-67
2021/05/20 09:21:06;;;;;;;2.00;1.50;;;;;;;23.19;31.68;100262.00;102240;1120;80171;-64
2021/05/20 09:23:15;;;;;;;1.40;1.30;;;;;;;23.08;32.41;100270.53;102221;1121;79233;-70
2021/05/20 09:25:22;;;;;;;3.10;1.50;;;;;;;22.72;32.91;100267.73;102239;1121;79631;-72
2021/05/20 09:27:34;;;;;;;1.80;0.70;;;;;;;23.11;33.35;100258.97;102228;1121;79445;-72
2021/05/20 09:29:42;;;;;;;1.70;0.80;;;;;;;23.39;33.63;100269.48;102214;1121;80361;-70
2021/05/20 09:31:49;;;;;;;3.40;1.20;;;;;;;23.85;33.73;100270.23;102225;1121;80766;-63
2021/05/20 09:33:58;;;;;;;1.40;1.10;;;;;;;23.99;33.45;100261.09;102216;1120;81276;-63
2021/05/20 09:36:05;;;;;;;1.30;1.00;;;;;;;24.28;33.09;100261.28;102211;1121;79874;-63
2021/05/20 09:38:14;;;;;;;1.70;1.00;;;;;;;24.26;32.53;100268.20;102241;1120;80505;-58
2021/05/20 09:40:23;;;;;;;1.50;1.10;;;;;;;23.98;32.71;100272.43;102251;1120;80522;-58
2021/05/20 09:42:32;;;;;;;2.20;1.20;;;;;;;23.64;32.41;100277.73;102179;1123;80756;-59
2021/05/20 09:44:37;;;;;;;1.30;0.90;;;;;;;23.46;31.51;100270.84;102244;1120;82839;-60
2021/05/20 09:46:45;;;;;;;2.40;0.80;;;;;;;23.05;32.77;100265.57;102058;1123;79668;-62
2021/05/20 09:48:51;;;;;;;1.40;1.10;;;;;;;22.64;33.24;100265.52;102248;1121;80928;-62